sensor_id;sensor_type;location;lat;lon;timestamp;P1;durP1;ratioP1;P2;durP2;ratioP2
10142;SDS011;5112;54.088;13.446;2023-02-18T00:01:20;16.33;;;3.73;;
10142;SDS011;5112;54.088;13.446;2023-02-18T00:11:24;12.83;;;3.53;;
10142;SDS011;5112;54.088;13.446;2023-02-18T00:21:26;10.40;;;3.70;;
10142;SDS011;5112;54.088;13.446;2023-02-18T00:31:30;10.97;;;3.20;;
10142;SDS011;5112;54.088;13.446;2023-02-18T00:41:33;15.70;;;3.40;;
10142;SDS011;5112;54.088;13.446;2023-02-18T00:51:37;12.77;;;4.23;;
10142;SDS011;5112;54.088;13.446;2023-02-18T01:01:39;9.43;;;3.87;;
10142;SDS011;5112;54.088;13.446;2023-02-18T01:11:42;19.57;;;4.63;;
10142;SDS011;5112;54.088;13.446;2023-02-18T01:21:43;13.57;;;3.67;;
10142;SDS011;5112;54.088;13.446;2023-02-18T01:31:46;12.07;;;3.67;;
10142;SDS011;5112;54.088;13.446;2023-02-18T01:41:48;12.23;;;4.70;;
10142;SDS011;5112;54.088;13.446;2023-02-18T01:51:53;12.87;;;4.63;;
10142;SDS011;5112;54.088;13.446;2023-02-18T02:01:56;17.37;;;4.00;;
10142;SDS011;5112;54.088;13.446;2023-02-18T02:12:06;13.87;;;4.30;;
10142;SDS011;5112;54.088;13.446;2023-02-18T02:22:39;13.00;;;4.17;;
10142;SDS011;5112;54.088;13.446;2023-02-18T02:33:02;15.47;;;4.53;;
10142;SDS011;5112;54.088;13.446;2023-02-18T02:43:26;15.00;;;4.20;;
10142;SDS011;5112;54.088;13.446;2023-02-18T02:53:34;19.93;;;4.40;;
10142;SDS011;5112;54.088;13.446;2023-02-18T03:03:45;16.83;;;4.17;;
10142;SDS011;5112;54.088;13.446;2023-02-18T03:13:56;18.17;;;4.40;;
10142;SDS011;5112;54.088;13.446;2023-02-18T03:24:09;21.47;;;4.80;;
10142;SDS011;5112;54.088;13.446;2023-02-18T03:34:17;12.17;;;4.23;;
10142;SDS011;5112;54.088;13.446;2023-02-18T03:44:26;12.00;;;3.90;;
10142;SDS011;5112;54.088;13.446;2023-02-18T03:54:27;12.53;;;4.23;;
10142;SDS011;5112;54.088;13.446;2023-02-18T04:04:30;16.30;;;3.93;;
10142;SDS011;5112;54.088;13.446;2023-02-18T04:14:32;20.73;;;4.70;;
10142;SDS011;5112;54.088;13.446;2023-02-18T04:24:35;11.70;;;4.00;;
10142;SDS011;5112;54.088;13.446;2023-02-18T04:34:37;14.50;;;3.67;;
10142;SDS011;5112;54.088;13.446;2023-02-18T04:44:40;13.43;;;3.97;;
10142;SDS011;5112;54.088;13.446;2023-02-18T04:54:41;14.20;;;3.90;;
10142;SDS011;5112;54.088;13.446;2023-02-18T05:04:44;14.60;;;4.37;;
10142;SDS011;5112;54.088;13.446;2023-02-18T05:14:46;9.97;;;3.60;;
10142;SDS011;5112;54.088;13.446;2023-02-18T05:24:49;12.23;;;4.20;;
10142;SDS011;5112;54.088;13.446;2023-02-18T05:34:51;14.53;;;4.10;;
10142;SDS011;5112;54.088;13.446;2023-02-18T05:44:54;15.47;;;3.40;;
10142;SDS011;5112;54.088;13.446;2023-02-18T05:54:55;15.90;;;3.90;;
10142;SDS011;5112;54.088;13.446;2023-02-18T06:04:58;14.43;;;4.03;;
10142;SDS011;5112;54.088;13.446;2023-02-18T06:15:00;15.47;;;4.23;;
10142;SDS011;5112;54.088;13.446;2023-02-18T06:25:03;12.10;;;3.60;;
10142;SDS011;5112;54.088;13.446;2023-02-18T06:35:05;19.63;;;4.10;;
10142;SDS011;5112;54.088;13.446;2023-02-18T06:45:09;13.20;;;4.47;;
10142;SDS011;5112;54.088;13.446;2023-02-18T06:55:10;13.87;;;3.60;;
10142;SDS011;5112;54.088;13.446;2023-02-18T07:05:14;13.30;;;3.93;;
10142;SDS011;5112;54.088;13.446;2023-02-18T07:15:16;11.37;;;3.67;;
10142;SDS011;5112;54.088;13.446;2023-02-18T07:25:24;12.03;;;3.60;;
10142;SDS011;5112;54.088;13.446;2023-02-18T07:35:26;17.67;;;3.80;;
10142;SDS011;5112;54.088;13.446;2023-02-18T07:45:29;9.23;;;3.27;;
10142;SDS011;5112;54.088;13.446;2023-02-18T07:55:30;15.40;;;3.70;;
10142;SDS011;5112;54.088;13.446;2023-02-18T08:05:48;19.37;;;4.90;;
10142;SDS011;5112;54.088;13.446;2023-02-18T08:15:53;15.77;;;3.90;;
10142;SDS011;5112;54.088;13.446;2023-02-18T08:25:56;10.53;;;3.23;;
10142;SDS011;5112;54.088;13.446;2023-02-18T08:35:58;15.97;;;4.63;;
10142;SDS011;5112;54.088;13.446;2023-02-18T08:46:01;8.87;;;3.20;;
10142;SDS011;5112;54.088;13.446;2023-02-18T08:56:04;10.03;;;3.30;;
10142;SDS011;5112;54.088;13.446;2023-02-18T09:06:09;12.57;;;2.50;;
10142;SDS011;5112;54.088;13.446;2023-02-18T09:16:12;10.40;;;3.00;;
10142;SDS011;5112;54.088;13.446;2023-02-18T09:26:19;8.00;;;2.67;;
10142;SDS011;5112;54.088;13.446;2023-02-18T09:36:22;5.87;;;2.30;;
10142;SDS011;5112;54.088;13.446;2023-02-18T09:46:26;9.23;;;2.50;;
10142;SDS011;5112;54.088;13.446;2023-02-18T09:56:32;4.93;;;1.83;;
10142;SDS011;5112;54.088;13.446;2023-02-18T10:06:39;7.50;;;2.13;;
10142;SDS011;5112;54.088;13.446;2023-02-18T10:16:42;3.97;;;1.70;;
10142;SDS011;5112;54.088;13.446;2023-02-18T10:26:47;8.70;;;3.17;;
10142;SDS011;5112;54.088;13.446;2023-02-18T10:36:50;9.93;;;2.73;;
10142;SDS011;5112;54.088;13.446;2023-02-18T10:46:58;5.70;;;2.10;;
10142;SDS011;5112;54.088;13.446;2023-02-18T10:57:08;11.07;;;2.53;;
10142;SDS011;5112;54.088;13.446;2023-02-18T11:07:20;6.13;;;2.37;;
10142;SDS011;5112;54.088;13.446;2023-02-18T11:17:25;3.60;;;2.37;;
10142;SDS011;5112;54.088;13.446;2023-02-18T11:27:33;4.43;;;1.83;;
10142;SDS011;5112;54.088;13.446;2023-02-18T11:37:42;4.67;;;1.40;;
10142;SDS011;5112;54.088;13.446;2023-02-18T11:47:46;6.03;;;2.00;;
10142;SDS011;5112;54.088;13.446;2023-02-18T11:58:00;3.67;;;1.70;;
10142;SDS011;5112;54.088;13.446;2023-02-18T12:08:06;3.67;;;1.53;;
10142;SDS011;5112;54.088;13.446;2023-02-18T12:18:19;5.70;;;2.00;;
10142;SDS011;5112;54.088;13.446;2023-02-18T12:28:55;5.60;;;1.83;;
10142;SDS011;5112;54.088;13.446;2023-02-18T12:39:10;4.17;;;1.70;;
10142;SDS011;5112;54.088;13.446;2023-02-18T12:49:21;3.57;;;2.00;;
10142;SDS011;5112;54.088;13.446;2023-02-18T12:59:44;2.03;;;1.20;;
10142;SDS011;5112;54.088;13.446;2023-02-18T13:10:16;4.27;;;1.60;;
10142;SDS011;5112;54.088;13.446;2023-02-18T13:20:28;4.60;;;2.50;;
10142;SDS011;5112;54.088;13.446;2023-02-18T13:30:38;2.10;;;1.33;;
10142;SDS011;5112;54.088;13.446;2023-02-18T13:40:45;2.83;;;2.07;;
10142;SDS011;5112;54.088;13.446;2023-02-18T13:50:48;2.77;;;1.60;;
10142;SDS011;5112;54.088;13.446;2023-02-18T14:00:52;2.67;;;1.60;;
10142;SDS011;5112;54.088;13.446;2023-02-18T14:31:52;2.63;;;1.47;;
10142;SDS011;5112;54.088;13.446;2023-02-18T14:41:57;1.50;;;1.10;;
10142;SDS011;5112;54.088;13.446;2023-02-18T14:52:12;1.30;;;1.20;;
10142;SDS011;5112;54.088;13.446;2023-02-18T15:02:22;3.70;;;1.80;;
10142;SDS011;5112;54.088;13.446;2023-02-18T15:12:28;1.40;;;1.20;;
10142;SDS011;5112;54.088;13.446;2023-02-18T15:22:30;2.50;;;1.20;;
10142;SDS011;5112;54.088;13.446;2023-02-18T15:32:36;3.47;;;1.20;;
10142;SDS011;5112;54.088;13.446;2023-02-18T15:42:38;1.93;;;1.20;;
10142;SDS011;5112;54.088;13.446;2023-02-18T15:52:41;2.10;;;1.17;;
10142;SDS011;5112;54.088;13.446;2023-02-18T16:02:51;1.57;;;1.00;;
10142;SDS011;5112;54.088;13.446;2023-02-18T16:12:55;1.20;;;1.10;;
10142;SDS011;5112;54.088;13.446;2023-02-18T16:23:00;1.63;;;1.20;;
10142;SDS011;5112;54.088;13.446;2023-02-18T16:33:04;1.50;;;0.90;;
10142;SDS011;5112;54.088;13.446;2023-02-18T16:43:08;2.40;;;1.93;;
10142;SDS011;5112;54.088;13.446;2023-02-18T16:53:12;2.50;;;1.80;;
10142;SDS011;5112;54.088;13.446;2023-02-18T17:03:14;2.17;;;1.98;;
10142;SDS011;5112;54.088;13.446;2023-02-18T17:13:18;2.60;;;2.10;;
10142;SDS011;5112;54.088;13.446;2023-02-18T17:23:22;2.00;;;1.90;;
10142;SDS011;5112;54.088;13.446;2023-02-18T17:33:25;2.88;;;2.40;;
10142;SDS011;5112;54.088;13.446;2023-02-18T17:43:27;2.60;;;2.40;;
10142;SDS011;5112;54.088;13.446;2023-02-18T17:53:30;3.93;;;2.03;;
10142;SDS011;5112;54.088;13.446;2023-02-18T18:03:31;3.40;;;2.00;;
10142;SDS011;5112;54.088;13.446;2023-02-18T18:13:34;2.90;;;2.10;;
10142;SDS011;5112;54.088;13.446;2023-02-18T18:23:36;4.10;;;2.87;;
10142;SDS011;5112;54.088;13.446;2023-02-18T18:33:39;3.40;;;2.67;;
10142;SDS011;5112;54.088;13.446;2023-02-18T18:43:42;4.80;;;3.50;;
10142;SDS011;5112;54.088;13.446;2023-02-18T18:53:45;4.10;;;3.13;;
10142;SDS011;5112;54.088;13.446;2023-02-18T19:03:47;5.43;;;3.17;;
10142;SDS011;5112;54.088;13.446;2023-02-18T19:13:50;4.83;;;2.87;;
10142;SDS011;5112;54.088;13.446;2023-02-18T19:23:52;3.43;;;3.10;;
10142;SDS011;5112;54.088;13.446;2023-02-18T19:33:55;5.80;;;3.10;;
10142;SDS011;5112;54.088;13.446;2023-02-18T19:43:56;15.93;;;9.10;;
10142;SDS011;5112;54.088;13.446;2023-02-18T19:54:00;5.43;;;3.30;;
10142;SDS011;5112;54.088;13.446;2023-02-18T20:04:02;5.93;;;4.23;;
10142;SDS011;5112;54.088;13.446;2023-02-18T20:14:05;5.17;;;4.00;;
10142;SDS011;5112;54.088;13.446;2023-02-18T20:24:08;6.80;;;5.20;;
10142;SDS011;5112;54.088;13.446;2023-02-18T20:34:11;6.27;;;5.40;;
10142;SDS011;5112;54.088;13.446;2023-02-18T20:44:13;7.77;;;5.70;;
10142;SDS011;5112;54.088;13.446;2023-02-18T20:54:17;10.37;;;6.07;;
10142;SDS011;5112;54.088;13.446;2023-02-18T21:04:19;7.63;;;5.67;;
10142;SDS011;5112;54.088;13.446;2023-02-18T21:14:22;9.13;;;6.30;;
10142;SDS011;5112;54.088;13.446;2023-02-18T21:24:25;6.83;;;5.23;;
10142;SDS011;5112;54.088;13.446;2023-02-18T21:34:28;5.73;;;5.17;;
10142;SDS011;5112;54.088;13.446;2023-02-18T21:44:30;6.60;;;5.03;;
10142;SDS011;5112;54.088;13.446;2023-02-18T21:54:33;10.20;;;5.27;;
10142;SDS011;5112;54.088;13.446;2023-02-18T22:04:38;6.97;;;5.63;;
10142;SDS011;5112;54.088;13.446;2023-02-18T22:14:41;7.73;;;5.37;;
10142;SDS011;5112;54.088;13.446;2023-02-18T22:24:43;7.77;;;4.87;;
10142;SDS011;5112;54.088;13.446;2023-02-18T22:34:46;6.83;;;5.30;;
10142;SDS011;5112;54.088;13.446;2023-02-18T22:44:48;9.23;;;5.10;;
10142;SDS011;5112;54.088;13.446;2023-02-18T22:54:51;9.43;;;4.20;;
10142;SDS011;5112;54.088;13.446;2023-02-18T23:04:53;9.53;;;4.97;;
10142;SDS011;5112;54.088;13.446;2023-02-18T23:14:56;9.27;;;4.67;;
10142;SDS011;5112;54.088;13.446;2023-02-18T23:24:58;10.63;;;5.13;;
10142;SDS011;5112;54.088;13.446;2023-02-18T23:35:01;5.63;;;4.10;;
10142;SDS011;5112;54.088;13.446;2023-02-18T23:45:03;11.67;;;4.07;;
10142;SDS011;5112;54.088;13.446;2023-02-18T23:55:06;6.70;;;4.00;;
